createdAt,value
2022-08-25T00:02:00.139Z,102018.88
2022-08-25T00:04:29.585Z,102005.78
2022-08-25T00:07:02.227Z,102014.75
2022-08-25T00:09:31.455Z,102010.41
2022-08-25T00:11:59.209Z,102008.66
2022-08-25T00:14:32.721Z,101996.28
2022-08-25T00:17:00.453Z,102009.38
2022-08-25T00:19:32.635Z,102007.59
2022-08-25T00:22:00.849Z,102003.16
2022-08-25T00:24:28.077Z,102008.50
2022-08-25T00:26:57.099Z,102011.16
2022-08-25T00:29:26.339Z,102015.53
2022-08-25T00:31:54.931Z,102004.06
2022-08-25T00:34:30.371Z,102015.41
2022-08-25T00:36:57.405Z,102013.59
2022-08-25T00:39:25.525Z,102016.19
2022-08-25T00:41:57.038Z,102017.03
2022-08-25T00:44:27.327Z,102015.22
2022-08-25T00:46:57.885Z,102014.38
2022-08-25T00:49:40.452Z,102015.31
2022-08-25T00:52:29.991Z,102010.22
2022-08-25T00:55:07.886Z,102009.38
2022-08-25T00:57:42.222Z,102001.59
2022-08-25T01:00:23.420Z,102005.31
2022-08-25T01:02:50.665Z,102003.72
2022-08-25T01:05:19.307Z,102000.31
2022-08-25T01:07:46.891Z,102003.09
2022-08-25T01:10:14.143Z,101985.63
2022-08-25T01:12:41.333Z,101999.88
2022-08-25T01:15:11.829Z,101995.56
2022-08-25T01:17:49.240Z,101991.28
2022-08-25T01:20:19.823Z,102000.19
2022-08-25T01:22:50.876Z,101997.56
2022-08-25T01:25:57.318Z,101990.56
2022-08-25T01:28:24.277Z,101994.09
2022-08-25T01:30:52.469Z,101988.81
2022-08-25T01:33:19.623Z,102000.22
2022-08-25T01:35:47.846Z,101993.19
2022-08-25T01:38:15.388Z,101993.91
2022-08-25T01:40:43.091Z,101998.16
2022-08-25T01:43:16.931Z,101989.25
2022-08-25T01:45:47.412Z,101993.59
2022-08-25T01:48:16.592Z,102004.09
2022-08-25T01:50:44.183Z,102000.53
2022-08-25T01:53:24.495Z,102004.19
2022-08-25T01:56:02.717Z,102012.19
2022-08-25T01:58:37.111Z,102003.50
2022-08-25T02:01:09.318Z,102003.59
2022-08-25T02:03:42.351Z,101988.63
2022-08-25T02:06:12.779Z,101996.56
2022-08-25T02:08:40.011Z,101993.94
2022-08-25T02:11:11.962Z,101997.53
2022-08-25T02:13:40.831Z,101986.13
2022-08-25T02:16:09.736Z,101983.38
2022-08-25T02:18:36.865Z,101980.69
2022-08-25T02:21:04.044Z,101983.22
2022-08-25T02:23:30.959Z,101971.69
2022-08-25T02:25:58.030Z,101965.63
2022-08-25T02:28:26.060Z,101964.69
2022-08-25T02:30:53.169Z,101972.69
2022-08-25T02:33:25.964Z,101974.53
2022-08-25T02:35:52.855Z,101961.31
2022-08-25T02:38:19.775Z,101965.66
2022-08-25T02:40:46.729Z,101965.63
2022-08-25T02:43:13.641Z,101961.13
2022-08-25T02:45:41.604Z,101953.09
2022-08-25T02:48:08.570Z,101961.81
2022-08-25T02:50:35.507Z,101956.41
2022-08-25T02:53:02.562Z,101959.75
2022-08-25T02:55:29.527Z,101949.94
2022-08-25T02:58:00.563Z,101945.41
2022-08-25T03:00:27.618Z,101956.72
2022-08-25T03:02:54.514Z,101954.84
2022-08-25T03:05:21.498Z,101947.72
2022-08-25T03:07:48.483Z,101956.47
2022-08-25T03:10:18.698Z,101954.59
2022-08-25T03:12:46.429Z,101952.75
2022-08-25T03:15:16.795Z,101956.22
2022-08-25T03:17:46.139Z,101949.06
2022-08-25T03:20:13.586Z,101941.97
2022-08-25T03:22:40.532Z,101952.53
2022-08-25T03:25:26.815Z,101947.16
2022-08-25T03:27:53.719Z,101944.47
2022-08-25T03:30:21.338Z,101946.19
2022-08-25T03:32:48.337Z,101942.59
2022-08-25T03:35:15.479Z,101939.88
2022-08-25T03:37:42.480Z,101938.09
2022-08-25T03:40:15.213Z,101933.63
2022-08-25T03:42:47.121Z,101940.66
2022-08-25T03:45:16.780Z,101939.81
2022-08-25T03:47:47.815Z,101943.31
2022-08-25T03:50:16.966Z,101940.66
2022-08-25T03:52:44.192Z,101943.31
2022-08-25T03:55:13.713Z,101945.09
2022-08-25T03:57:40.664Z,101941.44
2022-08-25T04:00:10.451Z,101937.91
2022-08-25T04:02:41.160Z,101939.69
2022-08-25T04:05:09.357Z,101934.38
2022-08-25T04:07:36.508Z,101942.28
2022-08-25T04:10:06.203Z,101945.84
2022-08-25T04:12:33.156Z,101940.53
2022-08-25T04:15:00.071Z,101950.25
2022-08-25T04:17:27.197Z,101945.00
2022-08-25T04:19:54.260Z,101945.09
2022-08-25T04:22:21.160Z,101957.50
2022-08-25T04:24:48.069Z,101953.94
2022-08-25T04:27:15.425Z,101945.09
2022-08-25T04:29:42.785Z,101946.88
2022-08-25T04:32:09.823Z,101947.75
2022-08-25T04:34:36.824Z,101945.16
2022-08-25T04:37:06.505Z,101939.81
2022-08-25T04:39:33.641Z,101946.81
2022-08-25T04:42:01.347Z,101937.88
2022-08-25T04:44:30.089Z,101944.81
2022-08-25T04:46:57.264Z,101936.00
2022-08-25T04:49:24.186Z,101943.03
2022-08-25T04:51:51.080Z,101946.47
2022-08-25T04:54:21.663Z,101940.19
2022-08-25T04:56:50.279Z,101949.78
2022-08-25T04:59:21.650Z,101949.88
2022-08-25T05:01:50.114Z,101943.81
2022-08-25T05:04:28.212Z,101941.31
2022-08-25T05:06:57.032Z,101943.13
2022-08-25T05:09:25.252Z,101938.69
2022-08-25T05:11:53.017Z,101936.00
2022-08-25T05:14:23.183Z,101942.03
2022-08-25T05:16:55.608Z,101943.63
2022-08-25T05:19:24.109Z,101947.03
2022-08-25T05:21:52.103Z,101946.16
2022-08-25T05:24:20.280Z,101946.00
2022-08-25T05:26:47.312Z,101939.75
2022-08-25T05:29:14.450Z,101933.53
2022-08-25T05:31:44.851Z,101932.75
2022-08-25T05:34:14.321Z,101933.88
2022-08-25T05:36:43.433Z,101935.75
2022-08-25T05:39:11.278Z,101943.88
2022-08-25T05:41:38.759Z,101941.31
2022-08-25T05:44:06.253Z,101934.13
2022-08-25T05:46:33.158Z,101940.22
2022-08-25T05:49:00.402Z,101947.16
2022-08-25T05:51:27.768Z,101943.53
2022-08-25T05:53:54.753Z,101953.09
2022-08-25T05:56:21.848Z,101939.78
2022-08-25T05:58:50.229Z,101944.28
2022-08-25T06:01:45.352Z,101949.72
2022-08-25T06:04:17.621Z,101956.91
2022-08-25T06:06:44.567Z,101961.28
2022-08-25T06:09:11.829Z,101964.75
2022-08-25T06:11:40.754Z,101961.16
2022-08-25T06:14:09.960Z,101962.94
2022-08-25T06:16:38.966Z,101956.72
2022-08-25T06:19:07.798Z,101959.47
2022-08-25T06:21:35.256Z,101944.47
2022-08-25T06:24:02.432Z,101955.97
2022-08-25T06:26:29.402Z,101941.91
2022-08-25T06:28:56.308Z,101943.03
2022-08-25T06:31:23.896Z,101943.97
2022-08-25T06:33:51.519Z,101943.91
2022-08-25T06:36:19.260Z,101942.03
2022-08-25T06:38:47.578Z,101946.19
2022-08-25T06:41:16.417Z,101951.38
2022-08-25T06:43:47.957Z,101951.31
2022-08-25T06:46:23.214Z,101949.56
2022-08-25T06:49:03.052Z,101940.84
2022-08-25T06:51:29.992Z,101939.97
2022-08-25T06:53:56.887Z,101941.75
2022-08-25T06:56:24.066Z,101941.63
2022-08-25T06:58:51.014Z,101935.31
2022-08-25T07:01:26.889Z,101940.50
2022-08-25T07:03:59.899Z,101943.00
2022-08-25T07:06:31.034Z,101943.66
2022-08-25T07:08:58.573Z,101948.91
2022-08-25T07:11:26.451Z,101946.13
2022-08-25T07:13:53.438Z,101951.16
2022-08-25T07:16:21.149Z,101960.78
2022-08-25T07:18:48.774Z,101958.88
2022-08-25T07:21:16.912Z,101952.53
2022-08-25T07:23:44.437Z,101944.50
2022-08-25T07:26:37.189Z,101950.47
2022-08-25T07:29:14.754Z,101952.03
2022-08-25T07:31:42.307Z,101947.41
2022-08-25T07:34:28.501Z,101942.00
2022-08-25T07:36:56.903Z,101942.69
2022-08-25T07:39:25.423Z,101949.59
2022-08-25T07:41:53.790Z,101950.34
2022-08-25T07:44:22.615Z,101950.25
2022-08-25T07:46:51.466Z,101949.31
2022-08-25T07:52:06.926Z,101950.00
2022-08-25T07:54:37.776Z,101949.69
2022-08-25T07:57:07.656Z,101941.25
2022-08-25T07:59:39.358Z,101939.97
2022-08-25T08:02:17.978Z,101949.31
2022-08-25T08:04:50.407Z,101951.66
2022-08-25T08:07:41.969Z,101943.34
2022-08-25T08:13:00.704Z,101943.75
2022-08-25T08:15:29.923Z,101941.69
2022-08-25T08:17:58.698Z,101925.72
2022-08-25T08:20:27.359Z,101939.41
2022-08-25T08:22:55.488Z,101942.63
2022-08-25T08:25:26.669Z,101936.97
2022-08-25T08:27:55.290Z,101941.00
2022-08-25T08:30:26.072Z,101929.22
2022-08-25T08:33:11.481Z,101933.22
2022-08-25T08:35:40.564Z,101926.53
2022-08-25T08:38:14.721Z,101927.66
2022-08-25T08:41:25.057Z,101933.22
2022-08-25T08:44:08.160Z,101928.91
2022-08-25T08:47:04.005Z,101923.06
2022-08-25T08:50:06.454Z,101930.31
2022-08-25T08:52:44.950Z,101922.81
2022-08-25T08:55:40.888Z,101918.09
2022-08-25T08:58:17.288Z,101914.34
2022-08-25T09:00:52.595Z,101902.78
2022-08-25T09:03:42.709Z,101906.09
2022-08-25T09:06:26.067Z,101898.00
2022-08-25T09:08:55.572Z,101903.16
2022-08-25T09:11:53.309Z,101904.09
2022-08-25T09:14:44.315Z,101899.53
2022-08-25T09:17:52.686Z,101894.19
2022-08-25T09:20:55.107Z,101896.81
2022-08-25T09:23:42.998Z,101890.34
2022-08-25T09:26:53.160Z,101885.66
2022-08-25T09:29:25.421Z,101889.00
2022-08-25T09:31:58.177Z,101879.00
2022-08-25T09:34:32.877Z,101880.25
2022-08-25T09:37:00.827Z,101878.06
2022-08-25T09:39:27.983Z,101871.00
2022-08-25T09:42:00.392Z,101869.19
2022-08-25T09:44:43.599Z,101868.22
2022-08-25T09:47:25.620Z,101862.97
2022-08-25T09:50:01.622Z,101857.88
2022-08-25T09:52:41.250Z,101865.75
2022-08-25T09:55:08.446Z,101859.22
2022-08-25T09:57:49.216Z,101854.63
2022-08-25T10:00:34.523Z,101855.38
2022-08-25T10:03:06.012Z,101855.16
2022-08-25T10:05:57.355Z,101854.16
2022-08-25T10:08:39.499Z,101853.84
2022-08-25T10:11:15.217Z,101833.88
2022-08-25T10:13:47.235Z,101827.50
2022-08-25T10:16:27.041Z,101837.03
2022-08-25T10:19:11.267Z,101843.78
2022-08-25T10:21:42.148Z,101838.13
2022-08-25T10:24:12.323Z,101830.97
2022-08-25T10:27:30.291Z,101835.25
2022-08-25T10:30:24.058Z,101826.88
2022-08-25T10:33:10.107Z,101827.22
2022-08-25T10:36:12.758Z,101817.78
2022-08-25T10:38:55.394Z,101808.75
2022-08-25T10:41:42.210Z,101819.09
2022-08-25T10:44:41.718Z,101810.59
2022-08-25T10:47:33.296Z,101799.81
2022-08-25T10:50:29.320Z,101789.19
2022-08-25T10:53:23.685Z,101789.91
2022-08-25T10:56:07.310Z,101797.69
2022-08-25T10:59:09.220Z,101797.56
2022-08-25T11:02:20.054Z,101797.56
2022-08-25T11:05:00.217Z,101789.28
2022-08-25T11:07:38.265Z,101792.38
2022-08-25T11:10:14.429Z,101787.56
2022-08-25T11:12:47.089Z,101798.84
2022-08-25T11:15:24.171Z,101796.06
2022-08-25T11:18:03.390Z,101784.25
2022-08-25T11:20:41.498Z,101785.56
2022-08-25T11:23:32.291Z,101789.81
2022-08-25T11:26:11.008Z,101784.47
2022-08-25T11:29:05.259Z,101783.13
2022-08-25T11:31:45.840Z,101768.44
2022-08-25T11:34:15.591Z,101774.97
2022-08-25T11:37:07.851Z,101772.66
2022-08-25T11:40:02.907Z,101778.47
2022-08-25T11:43:08.784Z,101760.91
2022-08-25T11:45:54.563Z,101768.72
2022-08-25T11:49:17.989Z,101762.78
2022-08-25T11:51:50.831Z,101760.69
2022-08-25T11:54:37.205Z,101755.22
2022-08-25T11:57:10.536Z,101760.56
2022-08-25T11:59:53.048Z,101759.97
2022-08-25T12:02:51.157Z,101752.16
2022-08-25T12:05:24.162Z,101757.66
2022-08-25T12:08:12.485Z,101748.31
2022-08-25T12:11:10.879Z,101749.97
2022-08-25T12:13:49.047Z,101744.31
2022-08-25T12:16:35.379Z,101740.97
2022-08-25T12:19:28.938Z,101741.72
2022-08-25T12:22:03.235Z,101744.97
2022-08-25T12:24:47.703Z,101732.25
2022-08-25T12:27:52.372Z,101728.34
2022-08-25T12:30:50.535Z,101731.72
2022-08-25T12:34:05.981Z,101734.28
2022-08-25T12:36:35.140Z,101720.66
2022-08-25T12:39:24.481Z,101721.25
2022-08-25T12:42:03.003Z,101722.72
2022-08-25T12:44:44.402Z,101722.50
2022-08-25T12:47:19.514Z,101722.50
2022-08-25T12:49:50.893Z,101720.88
2022-08-25T12:52:21.870Z,101714.91
2022-08-25T12:54:59.601Z,101714.50
2022-08-25T12:57:49.870Z,101716.34
2022-08-25T13:00:21.296Z,101708.94
2022-08-25T13:03:16.407Z,101705.28
2022-08-25T13:06:25.781Z,101704.63
2022-08-25T13:09:16.352Z,101704.81
2022-08-25T13:12:27.276Z,101708.91
2022-08-25T13:14:58.022Z,101708.50
2022-08-25T13:17:34.395Z,101697.09
2022-08-25T13:20:23.392Z,101697.94
2022-08-25T13:22:57.447Z,101698.47
2022-08-25T13:25:32.122Z,101693.78
2022-08-25T13:28:04.119Z,101693.22
2022-08-25T13:30:36.673Z,101687.28
2022-08-25T13:33:20.261Z,101685.88
2022-08-25T13:36:12.332Z,101676.47
2022-08-25T13:38:39.350Z,101683.38
2022-08-25T13:41:09.351Z,101678.16
2022-08-25T13:43:38.726Z,101680.34
2022-08-25T13:46:06.496Z,101681.06
2022-08-25T13:48:37.982Z,101679.69
2022-08-25T13:51:18.777Z,101675.84
2022-08-25T13:54:00.830Z,101668.06
2022-08-25T13:56:41.155Z,101654.75
2022-08-25T13:59:20.982Z,101668.38
2022-08-25T14:01:50.236Z,101669.94
2022-08-25T14:04:33.463Z,101666.97
2022-08-25T14:07:34.764Z,101669.75
2022-08-25T14:10:08.719Z,101665.41
2022-08-25T14:12:45.382Z,101667.00
2022-08-25T14:15:18.320Z,101654.84
2022-08-25T14:18:19.674Z,101657.50
2022-08-25T14:20:50.996Z,101653.78
2022-08-25T14:23:27.660Z,101653.78
2022-08-25T14:25:57.692Z,101650.06
2022-08-25T14:28:31.954Z,101646.31
2022-08-25T14:31:16.485Z,101640.69
2022-08-25T14:33:57.185Z,101641.34
2022-08-25T14:36:24.778Z,101634.19
2022-08-25T14:38:54.635Z,101632.63
2022-08-25T14:41:23.945Z,101635.78
2022-08-25T14:43:51.104Z,101625.88
2022-08-25T14:46:28.237Z,101618.88
2022-08-25T14:49:00.620Z,101623.72
2022-08-25T14:51:29.868Z,101615.69
2022-08-25T14:54:03.637Z,101612.25
2022-08-25T14:56:32.112Z,101615.69
2022-08-25T14:58:59.808Z,101609.06
2022-08-25T15:01:28.903Z,101602.69
2022-08-25T15:04:08.786Z,101598.72
2022-08-25T15:06:36.983Z,101595.44
2022-08-25T15:09:10.984Z,101587.75
2022-08-25T15:11:54.642Z,101588.22
2022-08-25T15:14:28.909Z,101598.53
2022-08-25T15:17:00.564Z,101592.75
2022-08-25T15:19:28.411Z,101591.53
2022-08-25T15:21:58.040Z,101587.91
2022-08-25T15:24:28.223Z,101592.56
2022-08-25T15:27:07.229Z,101587.47
2022-08-25T15:29:37.344Z,101586.16
2022-08-25T15:32:07.214Z,101597.13
2022-08-25T15:34:35.457Z,101584.59
2022-08-25T15:37:10.599Z,101580.03
2022-08-25T15:39:39.410Z,101591.53
2022-08-25T15:42:06.547Z,101590.91
2022-08-25T15:44:33.732Z,101590.25
2022-08-25T15:47:02.734Z,101586.19
2022-08-25T15:49:31.306Z,101583.47
2022-08-25T15:51:59.236Z,101580.59
2022-08-25T15:54:27.497Z,101589.16
2022-08-25T15:56:56.945Z,101574.25
2022-08-25T15:59:25.461Z,101570.78
2022-08-25T16:01:53.627Z,101580.56
2022-08-25T16:04:23.404Z,101565.34
2022-08-25T16:06:51.949Z,101561.03
2022-08-25T16:09:22.976Z,101572.72
2022-08-25T16:11:56.786Z,101560.59
2022-08-25T16:14:25.755Z,101566.97
2022-08-25T16:16:58.367Z,101568.25
2022-08-25T16:19:29.268Z,101564.00
2022-08-25T16:21:56.656Z,101558.03
2022-08-25T16:24:23.640Z,101560.09
2022-08-25T16:26:51.933Z,101563.19
2022-08-25T16:29:19.976Z,101562.66
2022-08-25T16:31:54.957Z,101560.06
2022-08-25T16:34:24.578Z,101555.88
2022-08-25T16:36:55.542Z,101554.69
2022-08-25T16:39:24.000Z,101547.84
2022-08-25T16:41:52.260Z,101551.38
2022-08-25T16:44:22.519Z,101552.66
2022-08-25T16:46:54.194Z,101550.75
2022-08-25T16:49:22.038Z,101556.28
2022-08-25T16:51:57.220Z,101547.75
2022-08-25T16:54:44.964Z,101533.13
2022-08-25T16:57:12.364Z,101545.72
2022-08-25T16:59:39.416Z,101544.84
2022-08-25T17:02:06.698Z,101547.41
2022-08-25T17:04:33.734Z,101554.13
2022-08-25T17:07:01.718Z,101565.94
2022-08-25T17:09:30.065Z,101552.00
2022-08-25T17:11:57.319Z,101557.91
2022-08-25T17:14:24.844Z,101544.00
2022-08-25T17:16:55.028Z,101547.00
2022-08-25T17:19:24.831Z,101545.88
2022-08-25T17:21:54.389Z,101553.09
2022-08-25T17:24:22.498Z,101549.38
2022-08-25T17:26:56.704Z,101547.31
2022-08-25T17:29:23.648Z,101541.81
2022-08-25T17:31:51.605Z,101543.06
2022-08-25T17:34:22.953Z,101550.97
2022-08-25T17:36:51.084Z,101550.16
2022-08-25T17:39:19.691Z,101555.03
2022-08-25T17:41:50.589Z,101553.50
2022-08-25T17:44:18.095Z,101546.06
2022-08-25T17:46:47.470Z,101555.25
2022-08-25T17:49:16.247Z,101550.19
2022-08-25T17:51:43.332Z,101556.19
2022-08-25T17:54:12.237Z,101555.13
2022-08-25T17:56:39.514Z,101567.16
2022-08-25T17:59:07.480Z,101555.06
2022-08-25T18:01:40.263Z,101557.00
2022-08-25T18:04:08.143Z,101551.06
2022-08-25T18:06:45.454Z,101557.72
2022-08-25T18:09:12.768Z,101556.34
2022-08-25T18:11:39.676Z,101556.72
2022-08-25T18:14:06.596Z,101564.25
2022-08-25T18:16:33.517Z,101564.66
2022-08-25T18:19:01.758Z,101569.50
2022-08-25T18:21:30.531Z,101569.88
2022-08-25T18:23:58.765Z,101561.22
2022-08-25T18:26:26.239Z,101560.63
2022-08-25T18:28:53.333Z,101566.25
2022-08-25T18:31:20.390Z,101563.88
2022-08-25T18:33:47.548Z,101572.91
2022-08-25T18:36:20.376Z,101571.28
2022-08-25T18:39:07.341Z,101574.13
2022-08-25T18:41:40.103Z,101580.25
2022-08-25T18:44:08.139Z,101573.00
2022-08-25T18:46:37.565Z,101579.22
2022-08-25T18:49:04.927Z,101582.91
2022-08-25T18:51:33.100Z,101578.00
2022-08-25T18:54:01.089Z,101577.41
2022-08-25T18:56:29.033Z,101570.63
2022-08-25T18:58:57.147Z,101574.28
2022-08-25T19:01:24.564Z,101571.78
2022-08-25T19:03:51.797Z,101576.44
2022-08-25T19:06:19.463Z,101576.69
2022-08-25T19:08:48.228Z,101578.59
2022-08-25T19:11:16.534Z,101571.47
2022-08-25T19:13:44.778Z,101576.53
2022-08-25T19:16:20.587Z,101583.47
2022-08-25T19:18:49.031Z,101590.56
2022-08-25T19:21:22.563Z,101582.81
2022-08-25T19:23:50.892Z,101580.31
2022-08-25T19:26:19.296Z,101580.38
2022-08-25T19:28:50.426Z,101583.97
2022-08-25T19:31:20.270Z,101581.44
2022-08-25T19:33:50.533Z,101583.19
2022-08-25T19:36:22.947Z,101583.25
2022-08-25T19:38:52.342Z,101564.03
2022-08-25T19:41:22.072Z,101578.75
2022-08-25T19:43:56.739Z,101577.09
2022-08-25T19:46:35.807Z,101580.69
2022-08-25T19:49:12.899Z,101578.88
2022-08-25T19:51:44.723Z,101577.03
2022-08-25T19:54:20.402Z,101581.44
2022-08-25T19:56:55.194Z,101577.75
2022-08-25T19:59:40.725Z,101575.66
2022-08-25T20:02:16.182Z,101585.16
2022-08-25T20:04:50.245Z,101576.13
2022-08-25T20:07:21.174Z,101574.28
2022-08-25T20:09:48.610Z,101581.25
2022-08-25T20:12:16.910Z,101579.44
2022-08-25T20:14:44.768Z,101574.25
2022-08-25T20:17:14.495Z,101582.38
2022-08-25T20:19:54.061Z,101576.38
2022-08-25T20:22:25.840Z,101574.59
2022-08-25T20:24:55.813Z,101576.53
2022-08-25T20:27:33.440Z,101576.56
2022-08-25T20:30:02.795Z,101582.94
2022-08-25T20:32:32.604Z,101575.88
2022-08-25T20:35:00.913Z,101574.97
2022-08-25T20:37:27.875Z,101576.72
2022-08-25T20:39:55.002Z,101574.06
2022-08-25T20:42:22.122Z,101573.22
2022-08-25T20:44:49.078Z,101576.06
2022-08-25T20:47:16.044Z,101573.75
2022-08-25T20:49:47.600Z,101572.47
2022-08-25T20:52:15.660Z,101574.63
2022-08-25T20:54:47.039Z,101565.06
2022-08-25T20:57:25.917Z,101577.44
2022-08-25T20:59:54.713Z,101572.88
2022-08-25T21:02:23.066Z,101572.84
2022-08-25T21:04:50.630Z,101567.56
2022-08-25T21:07:18.522Z,101565.69
2022-08-25T21:09:45.716Z,101569.25
2022-08-25T21:12:12.827Z,101570.19
2022-08-25T21:14:41.709Z,101573.72
2022-08-25T21:17:12.614Z,101562.22
2022-08-25T21:19:40.261Z,101557.88
2022-08-25T21:22:10.869Z,101561.44
2022-08-25T21:24:38.569Z,101564.97
2022-08-25T21:27:05.628Z,101564.06
2022-08-25T21:29:33.526Z,101551.69
2022-08-25T21:32:00.472Z,101554.25
2022-08-25T21:34:29.267Z,101556.03
2022-08-25T21:36:58.383Z,101550.78
2022-08-25T21:39:28.105Z,101552.50
2022-08-25T21:41:56.644Z,101555.16
2022-08-25T21:44:23.688Z,101555.16
2022-08-25T21:46:53.995Z,101547.19
2022-08-25T21:49:23.344Z,101550.81
2022-08-25T21:52:01.013Z,101549.84
2022-08-25T21:54:29.941Z,101552.56
2022-08-25T21:57:00.580Z,101556.09
2022-08-25T21:59:32.542Z,101549.91
2022-08-25T22:02:04.323Z,101545.56
2022-08-25T22:04:33.092Z,101550.06
2022-08-25T22:07:00.860Z,101546.59
2022-08-25T22:09:29.700Z,101536.06
2022-08-25T22:11:57.086Z,101523.81
2022-08-25T22:14:26.501Z,101522.78
2022-08-25T22:16:54.888Z,101526.41
2022-08-25T22:19:22.758Z,101526.47
2022-08-25T22:21:51.088Z,101524.84
2022-08-25T22:24:19.297Z,101521.38
2022-08-25T22:26:48.462Z,101517.00
2022-08-25T22:29:24.764Z,101508.19
2022-08-25T22:32:00.656Z,101506.53
2022-08-25T22:34:34.277Z,101510.94
2022-08-25T22:37:03.875Z,101503.03
2022-08-25T22:39:32.492Z,101510.13
2022-08-25T22:42:02.863Z,101513.66
2022-08-25T22:44:30.060Z,101507.47
2022-08-25T22:46:56.961Z,101505.81
2022-08-25T22:49:23.866Z,101504.25
2022-08-25T22:51:51.029Z,101499.19
2022-08-25T22:54:18.262Z,101501.13
2022-08-25T22:56:45.764Z,101496.69
2022-08-25T22:59:14.020Z,101496.72
2022-08-25T23:01:44.085Z,101502.09
2022-08-25T23:04:12.266Z,101498.81
2022-08-25T23:06:40.638Z,101500.84
2022-08-25T23:09:10.719Z,101498.41
2022-08-25T23:11:39.054Z,101484.50
2022-08-25T23:14:10.198Z,101489.09
2022-08-25T23:16:39.603Z,101487.31
2022-08-25T23:19:10.184Z,101477.44
2022-08-25T23:21:56.768Z,101486.91
2022-08-25T23:24:26.924Z,101477.97
2022-08-25T23:26:59.178Z,101469.97
2022-08-25T23:29:27.518Z,101468.16
2022-08-25T23:31:54.686Z,101470.59
2022-08-25T23:34:22.185Z,101472.22
2022-08-25T23:36:49.198Z,101464.13
2022-08-25T23:39:16.135Z,101460.41
2022-08-25T23:41:43.296Z,101464.69
2022-08-25T23:44:11.911Z,101465.53
2022-08-25T23:46:47.306Z,101463.97
2022-08-25T23:49:18.577Z,101459.72
2022-08-25T23:51:49.296Z,101468.00
2022-08-25T23:54:18.785Z,101463.66
2022-08-25T23:56:51.929Z,101465.34
2022-08-25T23:59:24.215Z,101466.91
